Time;durP1;ratioP1;P1;durP2;ratioP2;P2;SDS_P1;SDS_P2;PMS_P1;PMS_P2;Temp;Humidity;BMP_temperature;BMP_pressure;BME280_temperature;BME280_humidity;BME280_pressure;Samples;Min_cycle;Max_cycle;Signal;HPM_P1;HPM_P2
2023/01/06 00:02:29;;;;;;;6.27;4.30;;;4.90;99.90;;;;;;5080942;28;20650;-79
2023/01/06 00:05:19;;;;;;;4.87;4.03;;;4.90;99.90;;;;;;5088113;28;20234;-80
2023/01/06 00:08:08;;;;;;;5.83;4.10;;;4.90;99.90;;;;;;5080763;28;20223;-82
2023/01/06 00:10:56;;;;;;;4.10;3.70;;;4.80;99.90;;;;;;5085846;28;20292;-83
2023/01/06 00:13:45;;;;;;;4.53;4.13;;;4.90;99.90;;;;;;5091641;28;20231;-81
2023/01/06 00:16:35;;;;;;;4.20;3.70;;;4.90;99.90;;;;;;5084413;28;20563;-81
2023/01/06 00:19:26;;;;;;;5.17;4.10;;;4.80;99.90;;;;;;5082547;28;20260;-81
2023/01/06 00:22:14;;;;;;;5.83;4.40;;;4.80;99.90;;;;;;5086177;28;20348;-82
2023/01/06 00:25:04;;;;;;;5.57;4.43;;;4.90;99.90;;;;;;5074287;28;20234;-82
2023/01/06 00:27:53;;;;;;;5.77;4.50;;;5.10;99.90;;;;;;5098801;27;20319;-81
2023/01/06 00:30:41;;;;;;;5.03;4.13;;;4.80;99.90;;;;;;5085322;28;20796;-81
2023/01/06 00:33:33;;;;;;;4.83;4.10;;;4.80;99.90;;;;;;5078785;28;20599;-82
2023/01/06 00:36:24;;;;;;;6.27;4.50;;;4.90;99.90;;;;;;5084730;28;20999;-82
2023/01/06 00:39:13;;;;;;;6.10;4.60;;;4.80;99.90;;;;;;5113943;27;20227;-83
2023/01/06 00:42:06;;;;;;;6.03;5.17;;;4.80;99.90;;;;;;5084134;28;20235;-82
2023/01/06 00:44:55;;;;;;;6.13;4.60;;;4.90;99.90;;;;;;5082859;27;20219;-82
2023/01/06 00:47:44;;;;;;;6.07;4.37;;;4.90;99.90;;;;;;5083302;28;20223;-81
2023/01/06 00:50:33;;;;;;;6.63;4.80;;;4.80;99.90;;;;;;5086935;28;20227;-81
2023/01/06 00:53:23;;;;;;;6.97;4.80;;;4.80;99.90;;;;;;5094250;28;20223;-79
2023/01/06 00:56:12;;;;;;;5.03;4.27;;;4.80;99.90;;;;;;5112006;27;20223;-79
2023/01/06 00:59:02;;;;;;;5.70;4.67;;;4.90;99.90;;;;;;5093331;28;20634;-80
2023/01/06 01:01:54;;;;;;;5.87;4.77;;;4.70;99.90;;;;;;5080335;28;20692;-81
2023/01/06 01:04:43;;;;;;;6.03;4.67;;;4.80;99.90;;;;;;5082365;28;20713;-81
2023/01/06 01:07:32;;;;;;;7.13;4.90;;;4.90;99.90;;;;;;5091921;28;20235;-81
2023/01/06 01:10:22;;;;;;;5.43;4.20;;;4.90;99.90;;;;;;5084042;28;20231;-83
2023/01/06 01:13:11;;;;;;;5.23;4.67;;;4.70;99.90;;;;;;5086024;28;20216;-82
2023/01/06 01:16:04;;;;;;;5.70;4.63;;;4.50;99.90;;;;;;5111620;27;20215;-82
2023/01/06 01:18:53;;;;;;;5.40;4.57;;;4.50;99.90;;;;;;5077114;28;20222;-81
2023/01/06 01:21:42;;;;;;;6.53;4.30;;;4.40;99.90;;;;;;5075709;28;20697;-80
2023/01/06 01:24:31;;;;;;;6.53;4.57;;;4.60;99.90;;;;;;5081269;28;21059;-80
2023/01/06 01:27:21;;;;;;;7.53;4.20;;;4.60;99.90;;;;;;5080732;28;20220;-80
2023/01/06 01:30:11;;;;;;;5.80;4.33;;;4.40;99.90;;;;;;5080450;28;20244;-80
2023/01/06 01:33:00;;;;;;;6.53;4.60;;;4.40;99.90;;;;;;5083702;28;20215;-81
2023/01/06 01:35:49;;;;;;;4.57;4.10;;;4.50;99.90;;;;;;5080416;28;20308;-79
2023/01/06 01:38:37;;;;;;;5.93;4.60;;;4.40;99.90;;;;;;5085761;28;20231;-81
2023/01/06 01:41:28;;;;;;;5.07;4.57;;;4.20;99.90;;;;;;5080494;28;20309;-82
2023/01/06 01:44:54;;;;;;;6.63;4.60;;;4.10;99.90;;;;;;5079523;28;20296;-81
2023/01/06 01:47:48;;;;;;;5.03;3.97;;;4.20;99.90;;;;;;5083951;28;20268;-82
2023/01/06 01:50:40;;;;;;;4.80;4.10;;;4.30;99.90;;;;;;5079028;28;20223;-82
2023/01/06 01:53:32;;;;;;;5.13;4.60;;;4.40;99.90;;;;;;5084672;28;20588;-79
2023/01/06 01:56:27;;;;;;;5.00;4.50;;;4.50;99.90;;;;;;5085325;28;20227;-82
2023/01/06 01:59:19;;;;;;;5.57;4.47;;;4.30;99.90;;;;;;5083061;28;20815;-83
2023/01/06 02:02:08;;;;;;;5.10;4.50;;;4.20;99.90;;;;;;5081456;28;21079;-82
2023/01/06 02:05:00;;;;;;;5.83;4.80;;;4.10;99.90;;;;;;5077851;28;20227;-82
2023/01/06 02:07:49;;;;;;;6.10;4.40;;;4.30;99.90;;;;;;5085232;28;20698;-82
2023/01/06 02:10:38;;;;;;;6.13;4.90;;;4.10;99.90;;;;;;5084906;28;20223;-81
2023/01/06 02:13:27;;;;;;;5.50;4.97;;;4.30;99.90;;;;;;5082413;28;20357;-83
2023/01/06 02:16:23;;;;;;;6.57;5.10;;;4.20;99.90;;;;;;5106991;27;20615;-83
2023/01/06 02:19:30;;;;;;;5.63;5.00;;;4.30;99.90;;;;;;5084242;28;20215;-83
2023/01/06 02:22:38;;;;;;;8.27;5.20;;;4.30;99.90;;;;;;5105145;27;20241;-81
2023/01/06 02:25:53;;;;;;;6.20;5.37;;;4.30;99.90;;;;;;5084676;28;20247;-83
2023/01/06 02:29:07;;;;;;;5.63;5.03;;;4.20;99.90;;;;;;5076450;28;20216;-84
2023/01/06 02:32:02;;;;;;;6.43;4.97;;;4.10;99.90;;;;;;5083142;28;20231;-83
2023/01/06 02:35:02;;;;;;;6.17;4.63;;;4.00;99.90;;;;;;5079238;28;20230;-82
2023/01/06 02:38:01;;;;;;;5.40;4.37;;;4.00;99.90;;;;;;5078168;28;20346;-84
2023/01/06 02:41:06;;;;;;;6.17;4.93;;;3.90;99.90;;;;;;5078704;28;20231;-82
2023/01/06 02:44:03;;;;;;;4.77;4.17;;;3.90;99.90;;;;;;5072580;28;20249;-83
2023/01/06 02:47:06;;;;;;;5.77;4.53;;;4.00;99.90;;;;;;5084914;28;20597;-82
2023/01/06 02:50:00;;;;;;;4.73;4.27;;;4.00;99.90;;;;;;5110045;27;20624;-81
2023/01/06 02:53:03;;;;;;;4.50;4.00;;;4.10;99.90;;;;;;5089991;28;20238;-81
2023/01/06 02:55:53;;;;;;;4.40;3.83;;;4.00;99.90;;;;;;5073851;28;20264;-81
2023/01/06 02:58:48;;;;;;;4.10;3.70;;;3.80;99.90;;;;;;5077631;28;20805;-81
2023/01/06 03:01:42;;;;;;;4.33;3.90;;;3.80;99.90;;;;;;5086493;28;20231;-80
2023/01/06 03:04:37;;;;;;;4.20;3.50;;;3.90;99.90;;;;;;5095351;28;20220;-81
2023/01/06 03:07:28;;;;;;;3.97;3.40;;;3.90;99.90;;;;;;5090632;28;20757;-81
2023/01/06 03:10:19;;;;;;;4.20;3.53;;;3.90;99.90;;;;;;5083805;28;20310;-81
2023/01/06 03:13:14;;;;;;;4.30;3.90;;;3.90;99.90;;;;;;5103979;27;20307;-82
2023/01/06 03:16:04;;;;;;;3.40;3.03;;;3.90;99.90;;;;;;5092423;28;20739;-81
2023/01/06 03:18:55;;;;;;;5.33;3.10;;;3.60;99.90;;;;;;5083505;28;20242;-80
2023/01/06 03:21:50;;;;;;;4.60;3.60;;;3.60;99.90;;;;;;5086437;28;20756;-82
2023/01/06 03:24:43;;;;;;;4.07;3.57;;;3.60;99.90;;;;;;5084096;28;20226;-81
2023/01/06 03:27:32;;;;;;;5.10;3.60;;;3.80;99.90;;;;;;5077776;28;20243;-81
2023/01/06 03:30:21;;;;;;;3.77;2.97;;;3.90;99.90;;;;;;5085089;28;20239;-81
2023/01/06 03:33:18;;;;;;;4.50;3.37;;;3.90;99.90;;;;;;5083297;28;20214;-81
2023/01/06 03:36:14;;;;;;;3.50;3.20;;;3.90;99.90;;;;;;5112718;27;20223;-82
2023/01/06 03:39:11;;;;;;;4.23;3.07;;;4.00;99.90;;;;;;5076376;28;20227;-83
2023/01/06 03:45:37;;;;;;;3.70;3.20;;;3.90;99.90;;;;;;5080357;28;20261;-82
2023/01/06 03:48:35;;;;;;;4.03;3.60;;;4.00;99.90;;;;;;5115891;27;20574;-82
2023/01/06 03:51:36;;;;;;;4.10;3.67;;;4.10;99.90;;;;;;5096538;28;20219;-81
2023/01/06 03:54:38;;;;;;;4.20;3.60;;;4.00;99.90;;;;;;5094456;27;20219;-81
2023/01/06 03:57:35;;;;;;;5.10;3.87;;;4.10;99.90;;;;;;5086692;28;20220;-81
2023/01/06 04:00:31;;;;;;;4.70;4.20;;;4.10;99.90;;;;;;5088836;28;20296;-83
2023/01/06 04:03:25;;;;;;;4.47;3.83;;;4.20;99.90;;;;;;5090870;28;20242;-77
2023/01/06 04:06:14;;;;;;;4.77;4.07;;;4.20;99.90;;;;;;5078865;28;20235;-77
2023/01/06 04:09:04;;;;;;;4.10;3.70;;;4.10;99.90;;;;;;5085607;28;20220;-80
2023/01/06 04:15:06;;;;;;;6.90;4.20;;;4.00;99.90;;;;;;5084402;28;20219;-77
2023/01/06 04:17:56;;;;;;;4.47;3.97;;;4.10;99.90;;;;;;5111614;27;20212;-79
2023/01/06 04:20:46;;;;;;;4.43;4.03;;;4.10;99.90;;;;;;5081596;28;20792;-79
2023/01/06 04:23:40;;;;;;;4.43;4.00;;;4.20;99.90;;;;;;5081332;28;20254;-79
2023/01/06 04:26:32;;;;;;;5.20;4.30;;;4.10;99.90;;;;;;5084473;28;20311;-78
2023/01/06 04:29:23;;;;;;;5.63;4.47;;;3.90;99.90;;;;;;5097220;28;20219;-79
2023/01/06 04:32:14;;;;;;;4.87;4.30;;;4.00;99.90;;;;;;5077344;27;20233;-79
2023/01/06 04:35:03;;;;;;;7.27;4.13;;;4.10;99.90;;;;;;5085085;28;21084;-75
2023/01/06 04:37:52;;;;;;;4.93;4.27;;;4.10;99.90;;;;;;5085170;28;20250;-78
2023/01/06 04:40:42;;;;;;;4.77;4.10;;;4.00;99.90;;;;;;5082958;27;20215;-81
2023/01/06 04:43:31;;;;;;;4.70;4.20;;;3.90;99.90;;;;;;5080862;27;20234;-81
2023/01/06 04:46:21;;;;;;;4.70;4.13;;;4.00;99.90;;;;;;5085822;28;20215;-81
2023/01/06 04:49:10;;;;;;;4.70;4.03;;;4.10;99.90;;;;;;5081904;28;20299;-82
2023/01/06 04:51:58;;;;;;;4.37;3.80;;;3.90;99.90;;;;;;5081745;28;20277;-81
2023/01/06 04:54:47;;;;;;;4.93;4.40;;;3.90;99.90;;;;;;5088138;28;20216;-79
2023/01/06 04:57:36;;;;;;;4.80;4.30;;;4.00;99.90;;;;;;5092031;27;20219;-80
2023/01/06 05:00:25;;;;;;;4.57;3.93;;;4.10;99.90;;;;;;5082358;28;20966;-80
2023/01/06 05:03:15;;;;;;;4.47;3.80;;;4.00;99.90;;;;;;5076454;28;20216;-79
2023/01/06 05:06:08;;;;;;;5.07;4.20;;;4.00;99.90;;;;;;5083910;28;20777;-80
2023/01/06 05:08:57;;;;;;;4.90;4.30;;;4.00;99.90;;;;;;5086060;28;20298;-79
2023/01/06 05:11:46;;;;;;;6.90;4.03;;;4.00;99.90;;;;;;5108031;27;20327;-79
2023/01/06 05:14:34;;;;;;;5.33;4.10;;;3.90;99.90;;;;;;5088398;28;20314;-79
2023/01/06 05:17:23;;;;;;;6.10;4.57;;;3.80;99.90;;;;;;5092750;28;20243;-84
2023/01/06 05:20:14;;;;;;;4.67;4.10;;;3.60;99.90;;;;;;5088958;28;20216;-82
2023/01/06 05:23:03;;;;;;;4.47;4.07;;;3.80;99.90;;;;;;5079129;28;20358;-81
2023/01/06 05:25:52;;;;;;;5.03;3.77;;;3.80;99.90;;;;;;5081482;28;20945;-82
2023/01/06 05:28:41;;;;;;;4.80;4.10;;;3.60;99.90;;;;;;5081972;28;20228;-82
2023/01/06 05:31:29;;;;;;;5.23;4.10;;;3.70;99.90;;;;;;5080899;28;20234;-81
2023/01/06 05:34:18;;;;;;;5.33;4.50;;;3.50;99.90;;;;;;5086418;28;20219;-81
2023/01/06 05:37:10;;;;;;;4.77;4.27;;;3.60;99.90;;;;;;5082971;28;20222;-81
2023/01/06 05:39:58;;;;;;;8.03;4.70;;;3.70;99.90;;;;;;5080579;28;20210;-82
2023/01/06 05:42:47;;;;;;;5.20;4.13;;;3.70;99.90;;;;;;5081100;28;20218;-82
2023/01/06 05:45:37;;;;;;;4.67;4.17;;;3.90;99.90;;;;;;5080966;28;20595;-82
2023/01/06 05:48:28;;;;;;;4.93;4.13;;;3.90;99.90;;;;;;5079074;28;20247;-81
2023/01/06 05:51:18;;;;;;;6.60;4.63;;;3.70;99.90;;;;;;5084167;27;20255;-83
2023/01/06 05:54:09;;;;;;;6.57;4.23;;;3.90;99.90;;;;;;5086268;28;20246;-81
2023/01/06 05:56:58;;;;;;;5.63;4.10;;;3.70;99.90;;;;;;5084988;28;20235;-80
2023/01/06 05:59:47;;;;;;;5.17;3.97;;;3.70;99.90;;;;;;5083835;28;20223;-81
2023/01/06 06:02:35;;;;;;;4.40;3.67;;;3.60;99.90;;;;;;5075471;28;20335;-79
2023/01/06 06:05:25;;;;;;;5.80;4.10;;;3.70;99.90;;;;;;5092316;27;20227;-80
2023/01/06 06:08:14;;;;;;;5.23;4.30;;;3.70;99.90;;;;;;5081644;28;20915;-79
2023/01/06 06:11:06;;;;;;;5.60;4.10;;;3.60;99.90;;;;;;5070985;28;20224;-80
2023/01/06 06:13:56;;;;;;;5.27;4.27;;;3.70;99.90;;;;;;5081067;28;20243;-80
2023/01/06 06:16:45;;;;;;;6.27;4.40;;;3.70;99.90;;;;;;5075062;28;20224;-82
2023/01/06 06:19:33;;;;;;;4.83;4.03;;;3.70;99.90;;;;;;5079644;28;20239;-81
2023/01/06 06:22:22;;;;;;;5.33;4.50;;;3.70;99.90;;;;;;5080818;28;20227;-82
2023/01/06 06:25:11;;;;;;;4.80;4.20;;;3.80;99.90;;;;;;5074750;28;20828;-83
2023/01/06 06:28:01;;;;;;;5.50;4.30;;;3.70;99.90;;;;;;5084259;28;20762;-83
2023/01/06 06:30:50;;;;;;;5.07;4.50;;;3.90;99.90;;;;;;5081117;28;20272;-82
2023/01/06 06:33:41;;;;;;;4.97;4.47;;;3.70;99.90;;;;;;5091009;28;20230;-82
2023/01/06 06:36:31;;;;;;;5.47;4.47;;;3.80;99.90;;;;;;5084276;28;20234;-78
2023/01/06 06:39:20;;;;;;;5.13;4.50;;;3.70;99.90;;;;;;5084480;28;20700;-82
2023/01/06 06:42:10;;;;;;;4.53;4.10;;;3.80;99.90;;;;;;5079619;28;20587;-83
2023/01/06 06:45:00;;;;;;;5.53;4.40;;;3.60;99.90;;;;;;5082015;28;20235;-82
2023/01/06 06:47:49;;;;;;;6.13;4.50;;;3.50;99.90;;;;;;5090120;28;20760;-81
2023/01/06 06:50:38;;;;;;;6.27;4.90;;;3.40;99.90;;;;;;5107241;27;20576;-82
2023/01/06 06:53:27;;;;;;;5.87;5.07;;;3.50;99.90;;;;;;5075907;28;20242;-84
2023/01/06 06:56:18;;;;;;;6.57;4.90;;;3.60;99.90;;;;;;5072824;28;20693;-82
2023/01/06 06:59:06;;;;;;;6.00;4.80;;;3.80;99.90;;;;;;5086692;28;20304;-81
2023/01/06 07:01:57;;;;;;;5.30;4.73;;;3.60;99.90;;;;;;5081911;28;20991;-83
2023/01/06 07:04:46;;;;;;;4.83;4.30;;;3.60;99.90;;;;;;5077428;28;20229;-83
2023/01/06 07:07:35;;;;;;;4.50;3.90;;;3.30;99.90;;;;;;5082142;28;20242;-82
2023/01/06 07:10:24;;;;;;;4.57;4.10;;;3.30;99.90;;;;;;5079601;28;20230;-80
2023/01/06 07:13:13;;;;;;;7.27;4.40;;;3.10;99.90;;;;;;5091345;28;20558;-79
2023/01/06 07:16:02;;;;;;;5.10;4.37;;;3.20;99.90;;;;;;5083468;28;20219;-80
2023/01/06 07:18:52;;;;;;;6.40;4.63;;;3.30;99.90;;;;;;5097246;28;20222;-80
2023/01/06 07:21:41;;;;;;;6.17;4.63;;;3.30;99.90;;;;;;5101784;28;20214;-81
2023/01/06 07:24:34;;;;;;;5.23;4.60;;;3.30;99.90;;;;;;5082549;28;20743;-80
2023/01/06 07:27:23;;;;;;;6.10;4.53;;;3.00;99.90;;;;;;5070053;28;20283;-81
2023/01/06 07:30:12;;;;;;;7.40;5.00;;;3.10;99.90;;;;;;5069580;28;20283;-80
2023/01/06 07:33:01;;;;;;;6.03;4.67;;;3.00;99.90;;;;;;5086850;28;20219;-79
2023/01/06 07:35:54;;;;;;;7.47;4.80;;;3.00;99.90;;;;;;5087427;28;20223;-80
2023/01/06 07:38:43;;;;;;;9.37;5.00;;;3.20;99.90;;;;;;5076734;28;20587;-81
2023/01/06 07:41:32;;;;;;;8.63;5.17;;;3.20;99.90;;;;;;5074336;28;20219;-80
2023/01/06 07:44:21;;;;;;;7.57;5.10;;;3.20;99.90;;;;;;5079045;28;20773;-79
2023/01/06 07:47:10;;;;;;;7.03;4.73;;;3.20;99.90;;;;;;5074482;28;20693;-79
2023/01/06 07:50:00;;;;;;;5.37;4.40;;;3.20;99.90;;;;;;5077944;28;20220;-80
2023/01/06 07:52:50;;;;;;;7.00;4.70;;;3.20;99.90;;;;;;5108161;27;20215;-84
2023/01/06 07:55:39;;;;;;;5.00;4.37;;;2.80;99.90;;;;;;5081213;28;20885;-82
2023/01/06 07:58:28;;;;;;;5.73;4.97;;;2.90;99.90;;;;;;5083968;28;20219;-81
2023/01/06 08:01:16;;;;;;;5.83;5.00;;;3.10;99.90;;;;;;5081400;28;20307;-83
2023/01/06 08:04:05;;;;;;;5.87;4.90;;;3.30;99.90;;;;;;5109475;27;20216;-81
2023/01/06 08:06:55;;;;;;;6.47;4.73;;;3.30;99.90;;;;;;5089601;28;20234;-80
2023/01/06 08:09:45;;;;;;;5.43;4.90;;;3.40;99.90;;;;;;5079941;28;20249;-80
2023/01/06 08:12:34;;;;;;;6.27;5.10;;;3.40;99.90;;;;;;5082410;28;20341;-80
2023/01/06 08:15:23;;;;;;;5.80;5.20;;;3.40;99.90;;;;;;5084982;28;20702;-80
2023/01/06 08:18:12;;;;;;;5.57;5.03;;;3.40;99.90;;;;;;5081925;28;20219;-82
2023/01/06 08:21:01;;;;;;;7.50;4.80;;;3.20;99.90;;;;;;5080259;28;20391;-83
2023/01/06 08:23:50;;;;;;;6.33;4.90;;;3.20;99.90;;;;;;5112492;27;20222;-81
2023/01/06 08:26:41;;;;;;;5.47;4.87;;;3.30;99.90;;;;;;5086985;28;20759;-81
2023/01/06 08:29:29;;;;;;;6.33;5.13;;;3.40;99.90;;;;;;5086977;28;21018;-82
2023/01/06 08:32:18;;;;;;;8.27;5.10;;;3.60;99.90;;;;;;5087711;28;20635;-80
2023/01/06 08:35:08;;;;;;;10.57;5.60;;;3.50;99.90;;;;;;5078164;28;20233;-80
2023/01/06 08:37:57;;;;;;;7.57;5.90;;;3.70;99.90;;;;;;5087788;28;21003;-82
2023/01/06 08:40:45;;;;;;;7.50;5.57;;;3.70;99.90;;;;;;5092351;28;20224;-83
2023/01/06 08:43:37;;;;;;;6.60;5.20;;;3.80;99.90;;;;;;5075150;28;20725;-80
2023/01/06 08:46:26;;;;;;;8.60;5.23;;;3.50;99.90;;;;;;5084654;28;20708;-86
2023/01/06 08:49:15;;;;;;;7.20;5.23;;;3.40;99.90;;;;;;5080609;28;21039;-84
2023/01/06 08:52:04;;;;;;;5.97;4.73;;;3.40;99.90;;;;;;5086848;28;20219;-84
2023/01/06 08:54:54;;;;;;;6.47;5.10;;;3.60;99.90;;;;;;5080492;28;20228;-84
2023/01/06 08:57:42;;;;;;;9.17;5.70;;;3.80;99.90;;;;;;5084706;28;20227;-84
2023/01/06 09:00:33;;;;;;;7.53;5.50;;;3.80;99.90;;;;;;5072493;28;20702;-86
2023/01/06 09:03:22;;;;;;;8.47;6.20;;;4.00;99.90;;;;;;5088780;28;20597;-85
2023/01/06 09:06:11;;;;;;;8.50;5.50;;;3.90;99.90;;;;;;5105729;27;20228;-86
2023/01/06 09:09:00;;;;;;;8.93;5.37;;;3.70;99.90;;;;;;5081261;28;20215;-83
2023/01/06 09:11:49;;;;;;;7.73;5.43;;;3.70;99.90;;;;;;5079532;27;20703;-84
2023/01/06 09:14:38;;;;;;;7.20;5.20;;;3.70;99.90;;;;;;5112218;27;20224;-88
2023/01/06 09:17:30;;;;;;;8.73;5.47;;;3.60;99.90;;;;;;5085541;28;20291;-86
2023/01/06 09:20:19;;;;;;;8.37;5.50;;;3.70;99.90;;;;;;5085139;28;20222;-88
2023/01/06 09:23:08;;;;;;;6.70;5.27;;;3.70;99.90;;;;;;5082282;28;20316;-87
2023/01/06 09:25:57;;;;;;;7.13;5.60;;;3.70;99.90;;;;;;5098539;27;20227;-85
2023/01/06 09:28:46;;;;;;;8.17;5.30;;;3.80;99.90;;;;;;5097113;28;20211;-82
2023/01/06 09:31:35;;;;;;;7.60;5.50;;;3.80;99.90;;;;;;5125940;27;20216;-84
2023/01/06 09:34:25;;;;;;;6.33;5.27;;;3.70;99.90;;;;;;5089005;28;20216;-84
2023/01/06 09:37:14;;;;;;;9.70;5.30;;;3.80;99.90;;;;;;5083464;28;20287;-85
2023/01/06 09:40:04;;;;;;;5.93;5.33;;;3.60;99.90;;;;;;5083663;28;20220;-85
2023/01/06 09:43:02;;;;;;;7.00;5.37;;;3.70;99.90;;;;;;5086331;27;20695;-85
2023/01/06 09:45:56;;;;;;;6.53;5.37;;;3.90;99.90;;;;;;5112453;27;20842;-86
2023/01/06 09:48:52;;;;;;;6.10;4.97;;;3.80;99.90;;;;;;5082902;28;20273;-84
2023/01/06 09:51:44;;;;;;;6.77;5.00;;;3.90;99.90;;;;;;5086273;28;20230;-85
2023/01/06 09:54:39;;;;;;;6.57;5.57;;;3.90;99.90;;;;;;5082729;28;20223;-86
2023/01/06 09:57:33;;;;;;;6.63;5.13;;;3.90;99.90;;;;;;5085337;27;20235;-86
2023/01/06 10:00:35;;;;;;;9.07;5.30;;;3.90;99.90;;;;;;5087073;28;20336;-85
2023/01/06 10:03:25;;;;;;;12.93;10.90;;;3.80;99.90;;;;;;5083165;28;20823;-85
2023/01/06 10:06:31;;;;;;;8.20;5.80;;;3.80;99.90;;;;;;5086983;28;20229;-86
2023/01/06 10:09:29;;;;;;;9.23;5.90;;;3.90;99.90;;;;;;5078493;28;20219;-85
2023/01/06 10:12:35;;;;;;;17.63;9.87;;;3.90;99.90;;;;;;5089888;28;20220;-84
2023/01/06 10:15:35;;;;;;;12.77;9.13;;;4.00;99.90;;;;;;5112637;27;20346;-85
2023/01/06 10:18:36;;;;;;;10.13;6.63;;;3.90;99.90;;;;;;5076967;28;20226;-85
2023/01/06 10:21:30;;;;;;;9.20;7.30;;;4.10;99.90;;;;;;5091724;28;20215;-86
2023/01/06 10:24:32;;;;;;;12.43;8.23;;;4.10;99.90;;;;;;5085591;28;20219;-84
2023/01/06 10:27:25;;;;;;;8.63;6.70;;;4.10;99.90;;;;;;5080137;28;20286;-84
2023/01/06 10:30:19;;;;;;;8.47;6.47;;;4.00;99.90;;;;;;5087650;28;20231;-82
2023/01/06 10:33:21;;;;;;;6.73;5.20;;;4.10;99.90;;;;;;5109408;27;20215;-86
2023/01/06 10:36:12;;;;;;;5.97;5.00;;;4.10;99.90;;;;;;5099768;27;20226;-84
2023/01/06 10:39:07;;;;;;;6.30;5.60;;;4.00;99.90;;;;;;5080905;28;20721;-86
2023/01/06 10:45:12;;;;;;;9.53;5.80;;;4.00;99.90;;;;;;5064347;28;20239;-84
2023/01/06 10:48:02;;;;;;;12.60;7.07;;;4.10;99.90;;;;;;5085227;28;20523;-83
2023/01/06 10:50:51;;;;;;;11.60;8.30;;;4.10;99.90;;;;;;5078483;28;20226;-81
2023/01/06 10:53:44;;;;;;;8.57;6.20;;;4.10;99.90;;;;;;5113876;27;20234;-85
2023/01/06 10:56:35;;;;;;;7.57;5.20;;;4.10;99.90;;;;;;5078004;28;20239;-85
2023/01/06 10:59:26;;;;;;;7.43;5.63;;;3.90;99.90;;;;;;5086582;28;20646;-82
2023/01/06 11:02:22;;;;;;;9.90;7.47;;;3.80;99.90;;;;;;5083620;28;20571;-85
2023/01/06 11:05:20;;;;;;;10.30;7.17;;;3.90;99.90;;;;;;5076553;27;20678;-83
2023/01/06 11:08:13;;;;;;;9.77;7.20;;;3.80;99.90;;;;;;5086721;28;20228;-84
2023/01/06 11:11:02;;;;;;;8.03;6.83;;;3.80;99.90;;;;;;5071709;28;20227;-84
2023/01/06 11:13:54;;;;;;;14.23;10.00;;;3.80;99.90;;;;;;5077881;28;20227;-85
2023/01/06 11:16:54;;;;;;;12.20;8.33;;;3.90;99.90;;;;;;5110380;27;20702;-85
2023/01/06 11:19:45;;;;;;;9.20;7.80;;;3.90;99.90;;;;;;5081583;28;20214;-84
2023/01/06 11:22:36;;;;;;;11.70;8.77;;;4.00;99.90;;;;;;5073728;28;20820;-84
2023/01/06 11:25:30;;;;;;;12.83;8.53;;;3.90;99.90;;;;;;5081320;27;20766;-83
2023/01/06 11:28:21;;;;;;;10.30;7.80;;;4.00;99.90;;;;;;5073695;28;20226;-85
2023/01/06 11:31:16;;;;;;;10.87;8.00;;;3.90;99.90;;;;;;5076777;28;20222;-87
2023/01/06 11:34:06;;;;;;;9.80;8.23;;;3.80;99.90;;;;;;5089620;28;20230;-85
2023/01/06 11:36:55;;;;;;;9.80;7.90;;;3.80;99.90;;;;;;5098600;28;20206;-84
2023/01/06 11:39:45;;;;;;;9.23;7.47;;;3.80;99.90;;;;;;5129761;27;20216;-84
2023/01/06 11:42:39;;;;;;;8.47;6.87;;;3.70;99.90;;;;;;5085044;28;20274;-84
2023/01/06 11:45:33;;;;;;;9.93;7.40;;;3.80;99.90;;;;;;5096835;28;20237;-84
2023/01/06 11:48:27;;;;;;;9.37;7.57;;;3.80;99.90;;;;;;5087828;28;20238;-84
2023/01/06 11:51:32;;;;;;;7.83;7.00;;;3.80;99.90;;;;;;5089941;28;20215;-83
2023/01/06 11:54:25;;;;;;;9.47;7.20;;;3.90;99.90;;;;;;5080132;28;20222;-83
2023/01/06 11:57:23;;;;;;;9.07;7.33;;;3.90;99.90;;;;;;5082728;28;20690;-83
2023/01/06 12:00:24;;;;;;;21.30;7.60;;;3.90;99.90;;;;;;5086454;28;20234;-83
2023/01/06 12:03:20;;;;;;;9.30;6.83;;;4.10;99.90;;;;;;5089281;28;20237;-83
2023/01/06 12:06:24;;;;;;;8.37;7.23;;;4.00;99.90;;;;;;5090919;28;20299;-83
2023/01/06 12:09:18;;;;;;;9.27;7.50;;;4.00;99.90;;;;;;5096911;28;20671;-84
2023/01/06 12:12:11;;;;;;;8.47;6.90;;;4.10;99.90;;;;;;5095568;28;20874;-83
2023/01/06 12:15:00;;;;;;;9.00;6.97;;;4.10;99.90;;;;;;5091544;28;20227;-84
2023/01/06 12:17:55;;;;;;;11.23;6.70;;;3.90;99.90;;;;;;5102487;28;20231;-84
2023/01/06 12:20:47;;;;;;;7.87;6.47;;;3.90;99.90;;;;;;5100642;28;20216;-84
2023/01/06 12:23:40;;;;;;;9.00;7.00;;;3.80;99.90;;;;;;5096817;28;20220;-84
2023/01/06 12:26:31;;;;;;;9.37;7.37;;;3.80;99.90;;;;;;5076039;28;20230;-84
2023/01/06 12:29:21;;;;;;;8.70;6.80;;;3.90;99.90;;;;;;5091649;28;20597;-85
2023/01/06 12:32:17;;;;;;;9.17;7.67;;;4.10;99.90;;;;;;5074453;28;20601;-85
2023/01/06 12:35:11;;;;;;;11.00;7.90;;;4.10;99.90;;;;;;5083131;28;20223;-84
2023/01/06 12:38:07;;;;;;;10.00;7.80;;;4.20;99.90;;;;;;5086589;28;20243;-84
2023/01/06 12:41:03;;;;;;;9.07;7.47;;;4.10;99.90;;;;;;5076948;28;20770;-84
2023/01/06 12:43:57;;;;;;;9.20;7.47;;;4.10;99.90;;;;;;5074289;28;20357;-85
2023/01/06 12:46:54;;;;;;;11.83;8.40;;;3.90;99.90;;;;;;5085923;28;20259;-85
2023/01/06 12:49:48;;;;;;;9.33;7.53;;;4.10;99.90;;;;;;5065022;28;20247;-85
2023/01/06 12:52:41;;;;;;;10.83;8.03;;;4.00;99.90;;;;;;5072980;28;20223;-85
2023/01/06 12:55:40;;;;;;;10.67;8.10;;;4.00;99.90;;;;;;5048206;28;20708;-85
2023/01/06 12:58:37;;;;;;;10.63;7.97;;;4.00;99.90;;;;;;5078046;28;21103;-85
2023/01/06 13:01:36;;;;;;;8.70;7.57;;;4.00;99.90;;;;;;5098959;27;21002;-85
2023/01/06 13:05:01;;;;;;;10.30;7.67;;;4.10;99.90;;;;;;5058637;28;20223;-84
2023/01/06 13:08:01;;;;;;;9.40;7.63;;;4.00;99.90;;;;;;5082591;28;20357;-85
2023/01/06 13:10:59;;;;;;;9.53;7.67;;;3.90;99.90;;;;;;5059637;28;20220;-85
2023/01/06 13:14:06;;;;;;;9.93;7.23;;;3.90;99.90;;;;;;5079250;28;20227;-85
2023/01/06 13:16:59;;;;;;;9.63;8.10;;;3.90;99.90;;;;;;5047271;28;20211;-83
2023/01/06 13:19:51;;;;;;;10.20;7.70;;;3.80;99.90;;;;;;5048631;28;20242;-84
2023/01/06 13:22:54;;;;;;;11.47;8.13;;;3.90;99.90;;;;;;5065975;28;20223;-85
2023/01/06 13:26:01;;;;;;;9.77;7.77;;;3.80;99.90;;;;;;5085278;28;20220;-85
2023/01/06 13:29:01;;;;;;;10.93;7.80;;;4.00;99.90;;;;;;5082776;28;20227;-85
2023/01/06 13:32:04;;;;;;;10.17;8.57;;;4.00;99.90;;;;;;5072624;28;20227;-85
2023/01/06 13:35:22;;;;;;;10.33;8.17;;;4.00;99.90;;;;;;5073474;28;20215;-86
2023/01/06 13:38:29;;;;;;;11.10;8.83;;;3.80;99.90;;;;;;5073194;28;20216;-85
2023/01/06 13:41:21;;;;;;;14.50;9.47;;;3.60;99.90;;;;;;5060016;28;20260;-84
2023/01/06 13:44:15;;;;;;;12.57;9.03;;;3.70;99.90;;;;;;5071136;28;20212;-85
2023/01/06 13:47:08;;;;;;;12.00;9.17;;;3.80;99.90;;;;;;5083481;28;20228;-85
2023/01/06 13:49:58;;;;;;;12.27;9.07;;;3.80;99.90;;;;;;5060195;28;20224;-85
2023/01/06 13:52:47;;;;;;;11.20;9.27;;;3.80;99.90;;;;;;5074042;28;20224;-86
2023/01/06 13:55:37;;;;;;;16.40;10.37;;;3.90;99.90;;;;;;5073943;28;20227;-85
2023/01/06 13:58:37;;;;;;;11.73;9.27;;;3.90;99.90;;;;;;5072108;28;20223;-85
2023/01/06 14:01:35;;;;;;;11.60;9.10;;;4.10;99.90;;;;;;5085121;28;20230;-84
2023/01/06 14:04:50;;;;;;;14.10;9.40;;;4.10;99.90;;;;;;5086630;28;20223;-84
2023/01/06 14:07:48;;;;;;;12.77;8.63;;;4.00;99.90;;;;;;5086776;28;20808;-85
2023/01/06 14:10:39;;;;;;;11.37;8.90;;;3.90;99.90;;;;;;5076086;28;20303;-85
2023/01/06 14:13:34;;;;;;;10.77;8.43;;;3.80;99.90;;;;;;5083258;28;20230;-86
2023/01/06 14:16:41;;;;;;;11.10;8.37;;;3.90;99.90;;;;;;5089920;28;20571;-83
2023/01/06 14:19:34;;;;;;;11.87;8.57;;;4.00;99.90;;;;;;5085631;28;20288;-83
2023/01/06 14:22:26;;;;;;;11.50;8.50;;;3.80;99.90;;;;;;5081861;28;20724;-86
2023/01/06 14:25:22;;;;;;;11.63;8.53;;;3.60;99.90;;;;;;5081249;28;20251;-85
2023/01/06 14:28:25;;;;;;;11.93;8.17;;;3.80;99.90;;;;;;5083894;28;20276;-85
2023/01/06 14:31:40;;;;;;;11.57;8.60;;;3.80;99.90;;;;;;5107190;27;20219;-84
2023/01/06 14:34:29;;;;;;;11.20;8.27;;;3.80;99.90;;;;;;5071568;28;20223;-85
2023/01/06 14:37:20;;;;;;;10.23;8.17;;;3.70;99.90;;;;;;5085790;28;20234;-83
2023/01/06 14:40:18;;;;;;;11.43;8.60;;;3.70;99.90;;;;;;5091245;28;20219;-85
2023/01/06 14:43:42;;;;;;;11.70;8.40;;;3.90;99.90;;;;;;5081968;28;20242;-85
2023/01/06 14:46:38;;;;;;;11.37;8.33;;;3.80;99.90;;;;;;5084714;28;20231;-86
2023/01/06 14:49:34;;;;;;;11.90;8.27;;;3.80;99.90;;;;;;5077027;28;20646;-86
2023/01/06 14:52:31;;;;;;;12.07;9.45;;;3.70;99.90;;;;;;5070862;28;20424;-86
2023/01/06 14:55:22;;;;;;;11.67;8.87;;;3.60;99.90;;;;;;5059620;28;20224;-86
2023/01/06 14:58:29;;;;;;;13.50;9.17;;;3.60;99.90;;;;;;5076219;28;20268;-87
2023/01/06 15:01:23;;;;;;;12.17;9.20;;;3.80;99.90;;;;;;5080382;28;20223;-87
2023/01/06 15:04:24;;;;;;;15.63;9.67;;;3.80;99.90;;;;;;5076804;28;20852;-87
2023/01/06 15:07:19;;;;;;;13.40;9.67;;;3.80;99.90;;;;;;5085502;28;20217;-87
2023/01/06 15:10:20;;;;;;;14.07;9.13;;;3.90;99.90;;;;;;5057682;28;21081;-85
2023/01/06 15:13:21;;;;;;;18.83;10.37;;;3.70;99.90;;;;;;5062668;28;20555;-85
2023/01/06 15:16:19;;;;;;;13.33;9.80;;;3.80;99.90;;;;;;5078066;28;20218;-88
2023/01/06 15:19:13;;;;;;;15.87;10.17;;;3.80;99.90;;;;;;5075482;28;20229;-89
2023/01/06 15:22:07;;;;;;;15.37;9.90;;;3.80;99.90;;;;;;5078758;28;20246;-95